Time;durP1;ratioP1;P1;durP2;ratioP2;P2;SDS_P1;SDS_P2;PMS_P1;PMS_P2;Temp;Humidity;BMP_temperature;BMP_pressure;BME280_temperature;BME280_humidity;BME280_pressure;Samples;Min_cycle;Max_cycle;Signal;HPM_P1;HPM_P2
2021/05/13 00:02:22;;;;;;;8.80;2.45;;;12.00;83.20;;;;;;5022940;28;20044;-77
2021/05/13 00:04:48;;;;;;;7.95;3.20;;;11.90;83.10;;;;;;5012287;28;20022;-77
2021/05/13 00:07:13;;;;;;;10.40;2.22;;;11.80;83.10;;;;;;5012173;28;20029;-77
2021/05/13 00:12:50;;;;;;;9.63;2.58;;;11.90;84.00;;;;;;5015078;28;20055;-77
2021/05/13 00:15:37;;;;;;;7.38;2.25;;;11.90;83.40;;;;;;5016085;28;20037;-76
2021/05/13 00:20:48;;;;;;;7.40;2.50;;;11.80;83.80;;;;;;5018307;28;20571;-76
2021/05/13 00:37:57;;;;;;;7.50;2.47;;;11.70;84.70;;;;;;5032881;28;20053;-76
2021/05/13 00:40:42;;;;;;;10.93;3.33;;;11.60;85.00;;;;;;5028886;28;20026;-75
2021/05/13 00:43:26;;;;;;;9.07;2.92;;;11.60;85.90;;;;;;5037277;28;20038;-76
2021/05/13 00:46:11;;;;;;;8.88;2.65;;;11.60;85.40;;;;;;5024154;28;20093;-76
2021/05/13 00:48:39;;;;;;;9.48;2.67;;;11.60;85.80;;;;;;5018711;28;20026;-77
2021/05/13 00:51:23;;;;;;;8.27;2.75;;;11.60;86.00;;;;;;5016433;28;20021;-76
2021/05/13 00:53:49;;;;;;;9.30;2.85;;;11.50;86.40;;;;;;5016716;28;20057;-77
2021/05/13 00:56:33;;;;;;;12.07;3.13;;;11.50;86.70;;;;;;5016034;28;20041;-77
2021/05/13 01:04:10;;;;;;;9.52;2.83;;;11.50;87.20;;;;;;5016559;28;20472;-76
2021/05/13 01:06:54;;;;;;;10.27;4.00;;;11.50;87.60;;;;;;5016035;28;20033;-77
2021/05/13 01:09:24;;;;;;;8.88;3.05;;;11.40;87.60;;;;;;5015478;28;20036;-77
2021/05/13 01:20:04;;;;;;;9.93;3.63;;;11.40;87.90;;;;;;5021155;28;20437;-77
2021/05/13 01:22:49;;;;;;;10.70;3.55;;;11.30;88.00;;;;;;5015115;28;20065;-77
2021/05/13 01:25:14;;;;;;;11.82;4.00;;;11.30;88.20;;;;;;5014848;28;20035;-76
2021/05/13 01:27:58;;;;;;;11.38;4.18;;;11.30;88.40;;;;;;5014440;28;20037;-76
2021/05/13 01:31:02;;;;;;;8.90;3.80;;;11.30;88.70;;;;;;5014666;28;20030;-76
2021/05/13 01:39:53;;;;;;;8.25;3.83;;;11.20;89.40;;;;;;5024953;28;20113;-76
2021/05/13 01:42:37;;;;;;;10.65;4.43;;;11.20;89.40;;;;;;5033189;28;20047;-76
2021/05/13 01:45:21;;;;;;;10.57;5.30;;;11.10;89.60;;;;;;5016388;28;20029;-77
2021/05/13 01:48:24;;;;;;;10.45;4.60;;;11.20;89.80;;;;;;5015160;28;20085;-76
2021/05/13 01:50:50;;;;;;;10.43;4.15;;;11.20;89.90;;;;;;5014825;28;20573;-75
2021/05/13 01:53:16;;;;;;;11.82;4.97;;;11.20;89.70;;;;;;5025398;28;20014;-77
2021/05/13 01:55:42;;;;;;;9.13;4.47;;;11.10;89.90;;;;;;5020240;28;20026;-77
2021/05/13 01:58:08;;;;;;;10.10;4.47;;;11.10;90.10;;;;;;5014978;28;20117;-76
2021/05/13 02:00:35;;;;;;;14.13;5.00;;;11.10;90.10;;;;;;5015356;28;20030;-75
2021/05/13 02:03:01;;;;;;;11.40;5.32;;;11.10;90.00;;;;;;5014451;28;20060;-77
2021/05/13 02:08:29;;;;;;;8.15;4.53;;;11.00;90.10;;;;;;5015031;28;20445;-77
2021/05/13 02:10:55;;;;;;;17.60;6.53;;;11.00;90.10;;;;;;5013989;28;20036;-76
2021/05/13 02:13:21;;;;;;;10.23;5.25;;;11.00;90.20;;;;;;5014050;28;20109;-77
2021/05/13 02:16:04;;;;;;;10.98;5.88;;;11.00;90.20;;;;;;5014657;28;20029;-77
2021/05/13 02:18:31;;;;;;;13.18;5.63;;;11.00;90.20;;;;;;5016888;28;20030;-77
2021/05/13 02:23:42;;;;;;;12.48;6.25;;;11.00;90.30;;;;;;5016524;28;20045;-77
2021/05/13 02:26:08;;;;;;;13.45;6.03;;;11.00;90.30;;;;;;5015950;28;20029;-77
2021/05/13 02:28:52;;;;;;;16.58;6.55;;;10.90;90.30;;;;;;5016081;28;20100;-76
2021/05/13 02:31:17;;;;;;;12.45;6.40;;;10.90;90.30;;;;;;5014315;28;20034;-77
2021/05/13 02:42:53;;;;;;;12.45;6.18;;;10.80;90.30;;;;;;5025268;28;20098;-77
2021/05/13 02:45:19;;;;;;;11.43;6.47;;;10.80;90.40;;;;;;5035590;28;20018;-77
2021/05/13 02:47:45;;;;;;;10.57;6.22;;;10.80;90.40;;;;;;5024022;28;20430;-76
2021/05/13 02:50:13;;;;;;;14.77;6.70;;;10.80;90.50;;;;;;5016438;28;20053;-77
2021/05/13 02:52:58;;;;;;;16.20;7.18;;;10.90;90.60;;;;;;5013704;28;20037;-77
2021/05/13 02:58:26;;;;;;;18.23;8.32;;;10.80;91.20;;;;;;5015985;28;20040;-77
2021/05/13 03:06:53;;;;;;;15.73;8.20;;;10.80;91.20;;;;;;5015667;28;20060;-78
2021/05/13 03:09:19;;;;;;;13.18;8.02;;;10.70;91.20;;;;;;5023840;28;20061;-78
2021/05/13 03:11:45;;;;;;;11.80;7.53;;;10.70;91.20;;;;;;5020314;28;20014;-77
2021/05/13 03:17:13;;;;;;;15.50;7.00;;;10.70;91.10;;;;;;5018551;28;20399;-78
2021/05/13 03:22:42;;;;;;;14.40;7.25;;;10.70;91.10;;;;;;5014700;28;20056;-78
2021/05/13 03:27:56;;;;;;;15.27;7.95;;;10.70;91.00;;;;;;5014838;28;20342;-77
2021/05/13 03:30:24;;;;;;;13.38;8.20;;;10.70;91.00;;;;;;5012672;28;20160;-77
2021/05/13 03:33:09;;;;;;;16.27;8.48;;;10.60;91.20;;;;;;5012904;28;20633;-77
2021/05/13 03:35:54;;;;;;;14.95;7.65;;;10.60;90.90;;;;;;5012463;28;20136;-77
2021/05/13 03:38:20;;;;;;;12.93;8.20;;;10.60;90.90;;;;;;5013204;28;20076;-78
2021/05/13 03:43:30;;;;;;;14.50;8.70;;;10.60;91.00;;;;;;5015850;28;20041;-78
2021/05/13 03:45:56;;;;;;;16.90;8.75;;;10.60;90.90;;;;;;5020142;28;20014;-77
2021/05/13 03:48:21;;;;;;;17.20;9.55;;;10.60;91.00;;;;;;5019815;28;20021;-77
2021/05/13 03:50:47;;;;;;;14.40;8.77;;;10.60;91.10;;;;;;5026300;28;20441;-76
2021/05/13 03:53:12;;;;;;;16.55;9.20;;;10.60;91.00;;;;;;5015605;28;20080;-77
2021/05/13 03:55:38;;;;;;;19.88;9.82;;;10.50;91.00;;;;;;5013691;28;20437;-78
2021/05/13 03:58:07;;;;;;;17.08;9.90;;;10.60;91.10;;;;;;5014728;28;20574;-78
2021/05/13 04:03:16;;;;;;;18.55;10.18;;;10.50;91.10;;;;;;5014587;28;20029;-77
2021/05/13 04:13:57;;;;;;;26.63;11.50;;;10.60;91.30;;;;;;5014187;28;20481;-78
2021/05/13 04:16:27;;;;;;;23.05;12.48;;;10.60;91.40;;;;;;5013806;28;20022;-77
2021/05/13 04:18:53;;;;;;;21.95;12.65;;;10.60;91.50;;;;;;5013059;28;20092;-78
2021/05/13 04:21:38;;;;;;;17.30;11.75;;;10.70;91.60;;;;;;5013666;28;20049;-77
2021/05/13 04:24:22;;;;;;;20.02;12.02;;;10.60;91.50;;;;;;5012386;28;20532;-78
2021/05/13 04:26:48;;;;;;;17.27;12.68;;;10.60;91.60;;;;;;5029950;28;20034;-78
2021/05/13 04:29:35;;;;;;;18.05;13.20;;;10.70;91.60;;;;;;5012472;28;20056;-77
2021/05/13 04:32:02;;;;;;;19.77;12.68;;;10.70;91.60;;;;;;5029635;28;20450;-78
2021/05/13 04:35:05;;;;;;;24.30;15.65;;;10.70;91.60;;;;;;5012886;28;20085;-77
2021/05/13 04:37:49;;;;;;;20.80;12.80;;;10.80;91.70;;;;;;5015252;28;20049;-78
2021/05/13 04:40:53;;;;;;;21.83;13.45;;;10.80;91.80;;;;;;5016164;28;20118;-77
2021/05/13 04:43:39;;;;;;;17.23;12.90;;;10.90;91.80;;;;;;5048125;28;20068;-77
2021/05/13 04:46:07;;;;;;;20.52;13.15;;;10.90;91.70;;;;;;5045315;28;20092;-77
2021/05/13 04:51:23;;;;;;;22.90;13.93;;;11.00;91.60;;;;;;5023188;28;20080;-78
2021/05/13 04:57:11;;;;;;;25.85;15.38;;;11.20;91.60;;;;;;5014452;28;20406;-78
2021/05/13 05:00:14;;;;;;;22.77;14.68;;;11.30;91.60;;;;;;5012772;28;20026;-78
2021/05/13 05:02:45;;;;;;;20.13;14.82;;;11.30;91.50;;;;;;5031134;28;20028;-77
2021/05/13 05:05:11;;;;;;;27.17;15.85;;;11.40;91.50;;;;;;5017649;28;20026;-78
2021/05/13 05:07:37;;;;;;;19.98;15.23;;;11.50;91.50;;;;;;5021122;28;20014;-78
2021/05/13 05:10:04;;;;;;;22.73;15.35;;;11.50;91.70;;;;;;5037124;28;20022;-77
2021/05/13 05:15:51;;;;;;;19.77;14.98;;;11.70;91.30;;;;;;5019238;28;20025;-78
2021/05/13 05:18:21;;;;;;;22.85;15.43;;;11.80;91.20;;;;;;5017184;28;20030;-78
2021/05/13 05:23:51;;;;;;;22.38;14.75;;;12.00;91.10;;;;;;5018403;28;20037;-78
2021/05/13 05:26:35;;;;;;;23.08;16.75;;;12.00;90.70;;;;;;5016296;28;20026;-78
2021/05/13 05:29:02;;;;;;;25.23;15.57;;;12.10;90.70;;;;;;5016299;28;20018;-78
2021/05/13 05:31:46;;;;;;;23.77;17.17;;;12.20;90.70;;;;;;5015012;28;20021;-78
2021/05/13 05:36:56;;;;;;;17.58;14.27;;;12.30;90.30;;;;;;5017600;28;20088;-78
2021/05/13 05:39:22;;;;;;;22.73;16.17;;;12.40;90.20;;;;;;5026313;28;20026;-79
2021/05/13 05:45:09;;;;;;;19.05;14.43;;;12.60;90.00;;;;;;5017677;28;20041;-76
2021/05/13 05:50:19;;;;;;;21.42;14.73;;;12.80;89.20;;;;;;5017060;28;20454;-80
2021/05/13 05:58:33;;;;;;;18.65;14.50;;;13.10;88.10;;;;;;5028175;28;20041;-78
2021/05/13 06:01:17;;;;;;;20.85;15.30;;;13.20;87.90;;;;;;5029403;28;20030;-78
2021/05/13 06:04:02;;;;;;;22.83;16.27;;;13.30;86.90;;;;;;5017007;28;20026;-78
2021/05/13 06:06:46;;;;;;;20.27;14.30;;;13.30;86.10;;;;;;5016731;28;20545;-79
2021/05/13 06:09:12;;;;;;;18.55;13.85;;;13.40;85.90;;;;;;5016673;28;20052;-78
2021/05/13 06:11:37;;;;;;;19.35;15.77;;;13.40;86.40;;;;;;5015935;28;20030;-78
2021/05/13 06:14:03;;;;;;;14.20;10.85;;;13.40;85.60;;;;;;5015267;28;20018;-77
2021/05/13 06:16:29;;;;;;;18.95;14.02;;;13.50;85.10;;;;;;5022706;28;20037;-77
2021/05/13 06:21:58;;;;;;;22.77;16.17;;;13.60;84.80;;;;;;5017260;28;20720;-78
2021/05/13 06:24:24;;;;;;;14.93;12.77;;;13.60;84.50;;;;;;5016106;28;20025;-78
2021/05/13 06:27:15;;;;;;;24.05;17.10;;;13.70;84.60;;;;;;5016160;28;20116;-78
2021/05/13 06:29:41;;;;;;;25.48;17.08;;;13.80;84.10;;;;;;5032731;28;20026;-79
2021/05/13 06:35:10;;;;;;;23.27;18.35;;;14.00;83.10;;;;;;5019271;28;20111;-79
2021/05/13 06:37:55;;;;;;;21.23;17.90;;;14.20;82.20;;;;;;5020959;28;20036;-78
2021/05/13 06:40:21;;;;;;;28.17;17.17;;;14.20;82.00;;;;;;5023357;28;20034;-79
2021/05/13 06:43:24;;;;;;;22.55;18.65;;;14.30;81.80;;;;;;5022691;28;20022;-78
2021/05/13 06:45:50;;;;;;;21.13;15.18;;;14.40;81.10;;;;;;5045424;28;20060;-79
2021/05/13 06:48:16;;;;;;;24.52;20.13;;;14.40;80.40;;;;;;5035108;28;20018;-79
2021/05/13 06:50:41;;;;;;;25.10;18.02;;;14.60;80.20;;;;;;5032100;28;20176;-77
2021/05/13 06:53:07;;;;;;;24.67;18.17;;;14.70;79.70;;;;;;5023148;28;20036;-78
2021/05/13 06:55:33;;;;;;;20.85;17.67;;;14.90;79.30;;;;;;5017437;28;20034;-77
2021/05/13 07:01:01;;;;;;;22.13;16.67;;;15.20;78.60;;;;;;5017271;28;20092;-78
2021/05/13 07:03:46;;;;;;;24.40;17.27;;;15.40;78.00;;;;;;5040692;28;20018;-78
2021/05/13 07:06:11;;;;;;;22.02;17.27;;;15.60;76.90;;;;;;5030186;28;20108;-78
2021/05/13 07:08:56;;;;;;;21.50;16.23;;;15.80;76.20;;;;;;5018765;28;20049;-79
2021/05/13 07:11:40;;;;;;;28.33;18.20;;;15.90;74.50;;;;;;5013852;28;20105;-79
2021/05/13 07:14:06;;;;;;;18.92;14.82;;;16.00;74.00;;;;;;5013515;28;20046;-79
2021/05/13 07:16:33;;;;;;;20.80;15.68;;;16.00;73.30;;;;;;5013868;28;20110;-78
2021/05/13 07:22:21;;;;;;;24.55;14.52;;;16.30;72.80;;;;;;5015198;28;20071;-78
2021/05/13 07:24:50;;;;;;;16.88;13.02;;;16.30;72.20;;;;;;5013390;28;20022;-79
2021/05/13 07:30:20;;;;;;;23.38;15.23;;;16.30;72.70;;;;;;5016232;28;20025;-78
2021/05/13 07:33:23;;;;;;;19.40;13.75;;;16.60;72.10;;;;;;5024877;28;20516;-78
2021/05/13 07:39:10;;;;;;;20.17;14.88;;;16.70;71.20;;;;;;5015366;28;20088;-79
2021/05/13 07:41:55;;;;;;;14.73;12.43;;;16.90;71.40;;;;;;5013635;28;20030;-78
2021/05/13 07:44:21;;;;;;;17.10;13.10;;;17.00;71.60;;;;;;5029315;28;20034;-77
2021/05/13 07:49:34;;;;;;;13.35;10.63;;;17.50;70.50;;;;;;5014986;28;20327;-78
2021/05/13 07:52:18;;;;;;;15.57;10.15;;;17.70;69.30;;;;;;5015156;28;20018;-79
2021/05/13 07:55:03;;;;;;;20.90;16.20;;;17.80;68.20;;;;;;5030708;28;20030;-80
2021/05/13 07:57:28;;;;;;;13.85;11.27;;;18.00;67.90;;;;;;5015369;28;20037;-78
2021/05/13 08:00:13;;;;;;;8.48;5.18;;;18.10;66.40;;;;;;5016220;28;20398;-77
2021/05/13 08:02:40;;;;;;;15.82;12.40;;;18.20;64.50;;;;;;5016761;28;20022;-79
2021/05/13 08:07:51;;;;;;;17.92;14.48;;;18.30;64.40;;;;;;5022515;28;20165;-79
2021/05/13 08:10:17;;;;;;;19.23;15.00;;;18.30;62.20;;;;;;5020115;28;20026;-79
2021/05/13 08:13:01;;;;;;;21.63;16.63;;;18.40;63.20;;;;;;5013945;28;20033;-79
2021/05/13 08:18:30;;;;;;;17.33;12.25;;;18.70;62.60;;;;;;5014511;28;20287;-79
2021/05/13 08:20:55;;;;;;;14.45;10.40;;;18.80;62.40;;;;;;5013386;28;20180;-78
2021/05/13 08:23:40;;;;;;;21.13;15.13;;;19.00;62.20;;;;;;5016894;28;20071;-79
2021/05/13 08:26:26;;;;;;;18.45;13.32;;;19.20;61.00;;;;;;5032462;28;20026;-79
2021/05/13 08:28:52;;;;;;;15.38;12.40;;;19.40;59.30;;;;;;5012800;28;20086;-81
2021/05/13 08:31:37;;;;;;;13.13;10.93;;;19.40;58.90;;;;;;5012977;28;20484;-77
2021/05/13 08:34:02;;;;;;;27.08;15.70;;;19.40;59.20;;;;;;5012607;28;20046;-77
2021/05/13 08:36:31;;;;;;;20.05;15.38;;;19.50;57.10;;;;;;5014076;28;20018;-77
2021/05/13 08:38:59;;;;;;;7.65;4.22;;;19.50;57.60;;;;;;5019009;28;20030;-75
2021/05/13 08:41:25;;;;;;;13.32;9.00;;;19.50;59.40;;;;;;5021172;28;20021;-77
2021/05/13 08:44:12;;;;;;;19.10;14.80;;;19.60;58.80;;;;;;5025910;28;20041;-79
2021/05/13 08:46:58;;;;;;;8.07;4.82;;;19.60;58.90;;;;;;5032951;28;20036;-78
2021/05/13 08:49:42;;;;;;;12.02;5.88;;;19.70;59.50;;;;;;5030594;28;20053;-77
2021/05/13 08:55:16;;;;;;;13.45;10.55;;;20.20;59.40;;;;;;5029546;28;20053;-78
2021/05/13 08:58:03;;;;;;;11.77;8.38;;;20.50;58.20;;;;;;5024742;28;20030;-77
2021/05/13 09:03:51;;;;;;;22.35;14.93;;;20.60;56.30;;;;;;5024280;28;20040;-79
2021/05/13 09:06:44;;;;;;;11.38;10.13;;;20.60;56.30;;;;;;5016600;28;20112;-78
2021/05/13 09:15:03;;;;;;;19.80;15.43;;;20.60;54.60;;;;;;5017106;28;20060;-79
2021/05/13 09:17:30;;;;;;;13.82;11.65;;;20.60;51.90;;;;;;5015304;28;20124;-79
2021/05/13 09:19:56;;;;;;;16.20;12.80;;;20.60;52.10;;;;;;5032246;28;20029;-76
2021/05/13 09:25:27;;;;;;;11.55;9.32;;;20.90;52.40;;;;;;5018414;28;20619;-78
2021/05/13 09:28:30;;;;;;;22.30;17.63;;;21.10;52.70;;;;;;5020095;28;20125;-77
2021/05/13 09:30:55;;;;;;;16.25;9.35;;;21.10;50.00;;;;;;5033897;28;20073;-79
2021/05/13 09:42:31;;;;;;;8.27;4.97;;;21.70;50.70;;;;;;5016334;28;20504;-78
2021/05/13 09:47:42;;;;;;;8.30;4.07;;;22.00;54.80;;;;;;5016352;28;20044;-78
2021/05/13 09:50:27;;;;;;;6.32;3.25;;;22.30;54.40;;;;;;5013684;28;20033;-78
2021/05/13 09:53:00;;;;;;;4.03;2.15;;;22.60;55.00;;;;;;5014935;28;20373;-78
2021/05/13 09:55:47;;;;;;;4.65;2.45;;;22.70;56.00;;;;;;5015300;28;20121;-79
2021/05/13 09:58:31;;;;;;;7.18;3.50;;;22.80;56.40;;;;;;5015216;28;20387;-78
2021/05/13 10:03:55;;;;;;;4.38;2.83;;;23.50;52.90;;;;;;5018036;28;20731;-78
2021/05/13 10:10:11;;;;;;;5.78;2.13;;;23.30;55.20;;;;;;5017081;28;20045;-76
2021/05/13 10:12:44;;;;;;;3.92;2.15;;;23.40;51.60;;;;;;5019967;28;20026;-78
2021/05/13 10:15:10;;;;;;;5.45;1.42;;;23.20;54.50;;;;;;5028379;28;20025;-77
2021/05/13 10:17:43;;;;;;;4.70;1.20;;;23.30;51.40;;;;;;5017627;28;20026;-77
2021/05/13 10:20:10;;;;;;;6.68;2.72;;;23.60;52.10;;;;;;5015298;28;20161;-79
2021/05/13 10:22:36;;;;;;;4.80;2.53;;;23.90;50.40;;;;;;5016062;28;20493;-79
2021/05/13 10:25:37;;;;;;;3.55;1.40;;;24.10;51.70;;;;;;5018400;28;20055;-78
2021/05/13 10:28:04;;;;;;;3.65;1.73;;;24.40;56.00;;;;;;4939650;29;20066;-79
2021/05/13 10:37:10;;;;;;;4.80;1.73;;;24.80;55.20;;;;;;5016401;28;20116;-78
2021/05/13 10:39:36;;;;;;;3.22;1.48;;;24.90;54.60;;;;;;5015010;28;20026;-78
2021/05/13 10:42:29;;;;;;;6.88;2.05;;;24.90;55.20;;;;;;5016762;28;20021;-78
2021/05/13 10:44:54;;;;;;;3.28;1.60;;;24.90;55.30;;;;;;5023581;28;20022;-80
2021/05/13 10:47:58;;;;;;;4.90;1.90;;;24.80;55.60;;;;;;5032360;28;20037;-78
2021/05/13 10:53:47;;;;;;;3.28;1.40;;;25.10;55.50;;;;;;5037329;28;20041;-79
2021/05/13 10:59:08;;;;;;;4.95;2.03;;;25.00;53.50;;;;;;5015146;28;20044;-77
2021/05/13 11:01:48;;;;;;;4.75;1.90;;;24.80;54.20;;;;;;5014681;28;20097;-78
2021/05/13 11:04:20;;;;;;;3.58;1.65;;;24.80;55.30;;;;;;5013307;28;20544;-77
2021/05/13 11:06:53;;;;;;;2.42;1.30;;;24.90;55.90;;;;;;5013531;28;20030;-78
2021/05/13 11:12:41;;;;;;;2.88;1.42;;;25.00;55.50;;;;;;5014247;28;20052;-78
2021/05/13 11:18:20;;;;;;;5.63;3.00;;;25.50;57.00;;;;;;5014337;28;20040;-78
2021/05/13 11:21:05;;;;;;;7.80;5.88;;;25.60;55.20;;;;;;5012922;28;20084;-78
2021/05/13 11:23:32;;;;;;;5.13;2.00;;;25.70;45.60;;;;;;5013061;28;20030;-78
2021/05/13 11:26:17;;;;;;;7.45;4.05;;;25.90;53.80;;;;;;5013298;28;20058;-78
2021/05/13 11:28:46;;;;;;;11.15;3.92;;;26.10;47.90;;;;;;5012585;28;20057;-79
2021/05/13 11:31:20;;;;;;;8.23;5.20;;;26.10;47.00;;;;;;5013215;28;20026;-79
2021/05/13 11:34:08;;;;;;;7.80;3.70;;;26.20;44.00;;;;;;5014054;28;20042;-78
2021/05/13 11:36:39;;;;;;;5.20;1.85;;;26.20;43.10;;;;;;5013855;28;20530;-79
2021/05/13 11:39:27;;;;;;;5.65;2.78;;;26.30;53.80;;;;;;5014377;28;20100;-79
2021/05/13 11:45:23;;;;;;;7.18;3.75;;;26.60;51.30;;;;;;5013743;28;20025;-77
2021/05/13 11:48:08;;;;;;;7.05;3.95;;;26.70;42.80;;;;;;5016977;28;20029;-79
2021/05/13 11:53:37;;;;;;;3.53;1.63;;;26.40;54.40;;;;;;5017041;28;20060;-79
2021/05/13 11:56:05;;;;;;;4.75;2.30;;;26.00;56.60;;;;;;5014425;28;20026;-78
2021/05/13 12:01:22;;;;;;;5.82;2.60;;;25.50;54.30;;;;;;5014471;28;20070;-78
2021/05/13 12:09:49;;;;;;;5.80;2.45;;;24.30;56.50;;;;;;5016774;28;20040;-79
2021/05/13 12:12:22;;;;;;;4.10;2.00;;;24.10;58.10;;;;;;5015082;28;20026;-80
2021/05/13 12:15:06;;;;;;;5.38;2.13;;;23.80;60.70;;;;;;5016279;28;20511;-79
2021/05/13 12:17:31;;;;;;;8.55;3.65;;;23.80;59.40;;;;;;5026626;28;20086;-77
2021/05/13 12:20:16;;;;;;;7.75;3.20;;;24.10;54.60;;;;;;5021804;28;20407;-79
2021/05/13 12:23:01;;;;;;;7.25;3.05;;;24.50;51.60;;;;;;5013312;28;20030;-77
2021/05/13 12:28:11;;;;;;;5.15;1.92;;;25.60;54.20;;;;;;5015791;28;20461;-78
2021/05/13 12:30:37;;;;;;;6.43;2.17;;;26.00;54.80;;;;;;5016193;28;20460;-79
2021/05/13 12:33:39;;;;;;;4.53;1.90;;;26.10;54.40;;;;;;5013377;28;20033;-78
2021/05/13 12:36:10;;;;;;;3.50;1.83;;;26.20;52.70;;;;;;5014512;28;20398;-77
2021/05/13 12:38:42;;;;;;;4.30;2.20;;;26.20;53.70;;;;;;5014350;28;20035;-80
2021/05/13 12:41:28;;;;;;;4.30;1.70;;;26.20;53.90;;;;;;5017688;28;20448;-79
2021/05/13 12:44:13;;;;;;;3.55;1.83;;;26.20;53.20;;;;;;5033335;28;20045;-78
2021/05/13 12:53:20;;;;;;;3.72;1.80;;;26.20;53.10;;;;;;5031375;28;20045;-77
2021/05/13 12:55:48;;;;;;;4.82;2.38;;;26.20;54.90;;;;;;5034785;28;20066;-79
2021/05/13 12:58:33;;;;;;;4.82;1.83;;;26.30;54.90;;;;;;5026863;28;20401;-79
2021/05/13 13:01:00;;;;;;;3.67;1.80;;;26.60;54.00;;;;;;5014436;28;20042;-79
2021/05/13 13:03:30;;;;;;;4.80;1.80;;;26.80;52.80;;;;;;5016201;28;20033;-78
2021/05/13 13:09:08;;;;;;;4.88;2.05;;;26.50;55.20;;;;;;5013435;28;19993;-80
2021/05/13 13:14:48;;;;;;;3.17;1.30;;;26.70;53.20;;;;;;5013446;28;20041;-79
2021/05/13 13:17:26;;;;;;;3.60;1.38;;;26.70;54.90;;;;;;5012077;28;20092;-79
2021/05/13 13:20:16;;;;;;;5.78;1.80;;;26.80;55.30;;;;;;5011754;28;20425;-78
2021/05/13 13:23:01;;;;;;;3.40;1.20;;;26.60;55.40;;;;;;5012272;28;20584;-80
2021/05/13 13:25:26;;;;;;;2.97;1.20;;;26.40;54.80;;;;;;5015774;28;20030;-80
2021/05/13 13:28:10;;;;;;;3.45;1.42;;;26.50;56.40;;;;;;5017055;28;20157;-79
2021/05/13 13:34:00;;;;;;;5.68;2.53;;;26.90;52.60;;;;;;5016606;28;20119;-77
2021/05/13 13:39:10;;;;;;;5.35;2.25;;;26.70;50.70;;;;;;5016649;28;20502;-79
2021/05/13 13:44:39;;;;;;;4.78;2.30;;;26.60;52.70;;;;;;5017050;28;20088;-80
2021/05/13 13:47:42;;;;;;;6.72;1.40;;;26.50;55.20;;;;;;5015487;28;20057;-79
2021/05/13 13:50:08;;;;;;;3.58;1.20;;;26.50;55.10;;;;;;5015799;28;20077;-78
2021/05/13 13:52:52;;;;;;;3.55;1.67;;;26.30;57.10;;;;;;5015077;28;20466;-79
2021/05/13 13:55:56;;;;;;;2.90;1.30;;;26.00;57.10;;;;;;5015365;28;20030;-78
2021/05/13 13:58:40;;;;;;;2.47;0.95;;;25.60;57.70;;;;;;5015960;28;20058;-79
2021/05/13 14:01:06;;;;;;;3.90;1.88;;;25.60;59.30;;;;;;5016655;28;20034;-79
2021/05/13 14:07:12;;;;;;;2.13;1.45;;;26.00;56.70;;;;;;5016609;28;20033;-78
2021/05/13 14:10:00;;;;;;;3.22;1.60;;;26.20;55.40;;;;;;5016071;28;20026;-80
2021/05/13 14:12:26;;;;;;;4.03;1.90;;;26.30;54.70;;;;;;5014911;28;20030;-78
2021/05/13 14:17:55;;;;;;;5.32;1.27;;;26.10;53.70;;;;;;5016793;28;20037;-79
2021/05/13 14:20:40;;;;;;;2.92;1.20;;;26.20;56.20;;;;;;5015034;28;20026;-79
2021/05/13 14:23:06;;;;;;;3.70;1.40;;;26.30;54.50;;;;;;5015857;28;20022;-79
2021/05/13 14:25:32;;;;;;;3.97;1.60;;;26.40;56.00;;;;;;5032091;28;20049;-78
2021/05/13 14:28:35;;;;;;;3.30;1.33;;;26.40;54.10;;;;;;5021415;28;20033;-78
2021/05/13 14:34:41;;;;;;;4.03;1.20;;;26.30;54.80;;;;;;5033428;28;20060;-79
2021/05/13 14:37:08;;;;;;;2.63;1.17;;;26.30;56.10;;;;;;5030625;28;20046;-77
2021/05/13 14:42:18;;;;;;;2.92;1.48;;;25.80;54.20;;;;;;5016215;28;20515;-78
2021/05/13 14:44:44;;;;;;;2.28;0.95;;;25.50;52.00;;;;;;5014950;28;20053;-79
2021/05/13 14:47:09;;;;;;;2.50;1.00;;;25.10;57.20;;;;;;5018314;28;20030;-79
2021/05/13 14:50:13;;;;;;;2.13;1.13;;;24.90;59.60;;;;;;5025709;28;20086;-79
2021/05/13 14:52:39;;;;;;;3.67;1.63;;;24.80;59.10;;;;;;5031486;28;20038;-79
2021/05/13 14:57:50;;;;;;;2.33;1.02;;;24.60;59.10;;;;;;5020465;28;20049;-79
2021/05/13 15:03:08;;;;;;;3.20;1.55;;;24.50;58.00;;;;;;5015291;28;20449;-78
2021/05/13 15:05:53;;;;;;;5.25;2.17;;;24.30;56.40;;;;;;5018022;28;20022;-79
2021/05/13 15:08:18;;;;;;;4.68;1.70;;;24.10;55.20;;;;;;5015290;28;20060;-78
2021/05/13 15:11:02;;;;;;;4.90;1.42;;;23.90;57.40;;;;;;5016933;28;20022;-81
2021/05/13 15:16:12;;;;;;;4.20;1.33;;;23.40;62.90;;;;;;5014887;28;20547;-79
2021/05/13 15:18:38;;;;;;;3.17;1.30;;;23.30;63.00;;;;;;5012548;28;20037;-80
2021/05/13 15:21:41;;;;;;;3.90;1.38;;;23.10;63.00;;;;;;5014122;28;20022;-80
2021/05/13 15:24:26;;;;;;;5.85;1.42;;;22.90;62.10;;;;;;5012943;28;20080;-78
2021/05/13 15:26:51;;;;;;;3.35;1.55;;;22.70;63.00;;;;;;5012844;28;20030;-79
2021/05/13 15:29:36;;;;;;;7.78;2.33;;;22.50;63.60;;;;;;5013021;28;20026;-80
2021/05/13 15:32:40;;;;;;;3.65;1.67;;;22.40;60.80;;;;;;5014226;28;20053;-78
2021/05/13 15:35:24;;;;;;;5.40;1.30;;;22.20;62.40;;;;;;5014297;28;20133;-77
2021/05/13 15:38:08;;;;;;;5.53;1.40;;;22.10;64.60;;;;;;5014231;28;20033;-79
2021/05/13 15:40:36;;;;;;;4.03;1.30;;;22.00;64.70;;;;;;5013167;28;20351;-78
2021/05/13 15:46:05;;;;;;;4.07;1.73;;;22.00;64.30;;;;;;5014609;28;20437;-80
2021/05/13 15:48:49;;;;;;;5.78;1.80;;;21.90;63.90;;;;;;5012984;28;20022;-77
2021/05/13 16:02:31;;;;;;;4.80;1.80;;;21.20;63.90;;;;;;5013294;28;20068;-77
2021/05/13 16:05:16;;;;;;;7.35;1.98;;;21.10;61.40;;;;;;5012635;28;20476;-77
2021/05/13 16:07:42;;;;;;;6.95;2.30;;;21.00;61.90;;;;;;5012162;28;20022;-76
2021/05/13 16:10:09;;;;;;;3.42;1.40;;;21.00;64.30;;;;;;5012360;28;20026;-76
2021/05/13 16:12:40;;;;;;;7.47;2.10;;;20.90;65.30;;;;;;5013762;28;20446;-77
2021/05/13 16:15:06;;;;;;;6.15;2.30;;;20.90;63.10;;;;;;5012230;28;20025;-77
2021/05/13 16:17:32;;;;;;;8.95;2.45;;;20.90;58.30;;;;;;5011994;28;20474;-77
2021/05/13 16:19:57;;;;;;;5.93;1.70;;;20.90;64.70;;;;;;5013487;28;20333;-76
2021/05/13 16:25:45;;;;;;;4.35;1.60;;;20.80;64.60;;;;;;5029223;28;20033;-78
2021/05/13 16:28:30;;;;;;;6.97;1.35;;;20.80;64.40;;;;;;5019543;28;20030;-77
2021/05/13 16:30:55;;;;;;;4.45;1.52;;;20.80;64.60;;;;;;5023082;28;20030;-77
2021/05/13 16:36:43;;;;;;;6.70;2.05;;;20.70;63.80;;;;;;5013260;28;20037;-77
2021/05/13 16:39:27;;;;;;;10.55;2.97;;;20.70;59.50;;;;;;5012908;28;20034;-76
2021/05/13 16:42:12;;;;;;;6.18;2.10;;;20.60;60.10;;;;;;5012855;28;20220;-75
2021/05/13 16:44:37;;;;;;;6.20;2.38;;;20.50;61.60;;;;;;5011781;28;20053;-78
2021/05/13 16:47:03;;;;;;;9.38;3.53;;;20.30;60.80;;;;;;5011855;28;20438;-77
2021/05/13 16:49:47;;;;;;;6.65;1.88;;;20.40;56.00;;;;;;5014492;28;20029;-78
2021/05/13 16:55:36;;;;;;;5.80;1.50;;;20.30;62.80;;;;;;5025474;28;20033;-78
2021/05/13 16:58:01;;;;;;;8.48;2.58;;;20.20;58.90;;;;;;5024869;28;20153;-78
2021/05/13 17:00:27;;;;;;;7.55;3.08;;;20.30;57.20;;;;;;5022039;28;20453;-78
2021/05/13 17:02:53;;;;;;;6.18;3.50;;;20.20;53.80;;;;;;5015701;28;20462;-77
2021/05/13 17:05:26;;;;;;;6.00;2.00;;;20.20;52.40;;;;;;5016520;28;20097;-77
2021/05/13 17:07:54;;;;;;;9.10;2.85;;;20.10;62.20;;;;;;5015258;28;20018;-78
2021/05/13 17:10:20;;;;;;;7.30;3.58;;;19.80;59.10;;;;;;5015717;28;20021;-77
2021/05/13 17:13:04;;;;;;;7.38;3.60;;;19.50;56.80;;;;;;5016291;28;20022;-77
2021/05/13 17:15:49;;;;;;;9.68;4.55;;;19.00;58.60;;;;;;5019829;28;20032;-77
2021/05/13 17:18:14;;;;;;;8.05;3.83;;;18.50;59.20;;;;;;5017576;28;20033;-76
2021/05/13 17:20:59;;;;;;;9.00;4.03;;;18.20;61.60;;;;;;5018193;28;20071;-77
2021/05/13 17:23:24;;;;;;;9.57;4.00;;;17.90;60.70;;;;;;5016704;28;20030;-77
2021/05/13 17:25:50;;;;;;;7.57;3.97;;;17.50;62.00;;;;;;5015978;28;20160;-78
2021/05/13 17:28:35;;;;;;;9.90;4.82;;;17.20;64.30;;;;;;5015543;28;20033;-78
2021/05/13 17:36:48;;;;;;;9.35;4.88;;;16.60;68.50;;;;;;5019426;28;20477;-77
2021/05/13 17:39:14;;;;;;;8.45;5.20;;;16.20;71.20;;;;;;5015518;28;20033;-81
2021/05/13 17:44:24;;;;;;;12.32;5.93;;;15.90;75.00;;;;;;5017484;28;20041;-82
2021/05/13 17:52:59;;;;;;;11.75;7.32;;;15.40;78.50;;;;;;5017518;28;20029;-84
2021/05/13 17:55:25;;;;;;;11.88;8.00;;;15.20;80.10;;;;;;5016853;28;20355;-83
2021/05/13 17:57:50;;;;;;;13.13;8.43;;;15.10;81.30;;;;;;5016920;28;20037;-83
2021/05/13 18:04:01;;;;;;;11.30;8.05;;;14.80;83.20;;;;;;5018688;28;20068;-83
2021/05/13 18:06:27;;;;;;;15.50;9.85;;;14.70;84.20;;;;;;5017164;28;20018;-82
2021/05/13 18:08:52;;;;;;;13.07;9.32;;;14.60;84.60;;;;;;5016364;28;20049;-81
2021/05/13 18:14:03;;;;;;;14.30;9.43;;;14.40;85.90;;;;;;5024563;28;20053;-82